createdAt,value
2019-01-15T06:45:05.066Z,30.30
2019-01-15T06:47:35.552Z,31.00
2019-01-15T06:50:06.338Z,31.40
2019-01-15T06:52:38.265Z,30.60
2019-01-15T06:55:11.133Z,31.20
2019-01-15T06:57:42.890Z,30.90
2019-01-15T07:00:23.995Z,30.90
2019-01-15T07:02:54.140Z,31.00
2019-01-15T07:05:24.575Z,31.30
2019-01-15T07:08:12.951Z,31.40
2019-01-15T07:10:43.501Z,31.50
2019-01-15T07:13:24.378Z,31.10
2019-01-15T07:15:57.134Z,31.60
2019-01-15T07:18:27.884Z,31.70
2019-01-15T07:21:04.768Z,31.30
2019-01-15T07:23:36.962Z,31.80
2019-01-15T07:26:12.982Z,32.20
2019-01-15T07:28:50.955Z,32.70
2019-01-15T07:31:47.957Z,32.70
2019-01-15T07:34:19.151Z,32.80
2019-01-15T07:36:50.431Z,34.00
2019-01-15T07:39:20.969Z,34.40
2019-01-15T07:41:51.905Z,34.70
2019-01-15T07:44:22.396Z,34.10
2019-01-15T07:46:53.069Z,33.20
2019-01-15T07:49:24.447Z,32.90
2019-01-15T07:51:54.945Z,32.20
2019-01-15T07:54:25.420Z,33.30
2019-01-15T07:56:56.157Z,32.20
2019-01-15T07:59:26.647Z,32.30
2019-01-15T08:01:57.550Z,32.00
2019-01-15T08:04:28.620Z,31.60
2019-01-15T08:07:01.095Z,31.70
2019-01-15T08:09:31.432Z,31.70
2019-01-15T08:12:03.212Z,31.20
2019-01-15T08:17:06.198Z,30.60
2019-01-15T08:22:08.186Z,31.10
2019-01-15T08:24:41.202Z,32.50
2019-01-15T08:27:11.806Z,33.40
2019-01-15T08:29:42.806Z,33.30
2019-01-15T08:32:17.547Z,34.50
2019-01-15T08:34:48.246Z,34.80
2019-01-15T08:37:18.761Z,35.40
2019-01-15T08:39:49.396Z,35.50
2019-01-15T08:42:20.089Z,35.70
2019-01-15T08:44:54.007Z,36.90
2019-01-15T08:47:24.737Z,37.30
2019-01-15T08:49:58.836Z,36.70
2019-01-15T08:52:30.900Z,37.70
2019-01-15T08:55:01.458Z,37.80
2019-01-15T08:57:31.952Z,38.00
2019-01-15T09:00:15.100Z,38.10
2019-01-15T09:02:55.173Z,37.70
2019-01-15T09:05:25.827Z,37.50
2019-01-15T09:07:56.154Z,37.40
2019-01-15T09:10:26.676Z,38.20
2019-01-15T09:12:57.170Z,38.60
2019-01-15T09:15:28.017Z,39.50
2019-01-15T09:18:02.441Z,39.70
2019-01-15T09:20:33.723Z,38.90
2019-01-15T09:23:04.586Z,39.00
2019-01-15T09:25:35.047Z,38.90
2019-01-15T09:28:05.942Z,39.00
2019-01-15T09:30:46.754Z,39.10
2019-01-15T09:33:20.725Z,39.30
2019-01-15T09:35:52.317Z,40.30
2019-01-15T09:38:22.708Z,40.40
2019-01-15T09:40:53.115Z,40.30
2019-01-15T09:43:23.558Z,40.70
2019-01-15T09:45:57.552Z,41.10
2019-01-15T09:48:35.541Z,41.30
2019-01-15T09:51:06.498Z,41.80
2019-01-15T09:53:46.819Z,41.60
2019-01-15T09:56:25.137Z,41.80
2019-01-15T09:58:58.692Z,41.80
2019-01-15T10:01:29.522Z,41.90
2019-01-15T10:04:02.183Z,42.80
2019-01-15T10:06:38.753Z,42.70
2019-01-15T10:09:13.099Z,42.80
2019-01-15T10:11:43.480Z,42.80
2019-01-15T10:14:14.475Z,42.00
2019-01-15T10:16:53.035Z,40.80
2019-01-15T10:19:17.849Z,40.90
2019-01-15T10:21:48.791Z,40.10
2019-01-15T10:24:19.548Z,40.30
2019-01-15T10:26:52.758Z,40.60
2019-01-15T10:30:06.755Z,42.00
2019-01-15T10:32:49.896Z,41.50
2019-01-15T10:36:03.902Z,41.30
2019-01-15T10:38:34.413Z,42.00
2019-01-15T10:41:05.203Z,42.30
2019-01-15T10:43:37.723Z,42.50
2019-01-15T10:46:07.989Z,42.80
2019-01-15T10:48:39.832Z,42.90
2019-01-15T10:51:10.335Z,43.10
2019-01-15T10:53:42.355Z,42.80
2019-01-15T10:56:14.759Z,43.10
2019-01-15T10:58:50.793Z,42.80
2019-01-15T11:01:21.273Z,43.90
2019-01-15T11:03:54.896Z,39.70
2019-01-15T11:06:28.120Z,36.70
2019-01-15T11:08:58.649Z,35.70
2019-01-15T11:11:31.970Z,35.00
2019-01-15T11:14:08.514Z,36.20
2019-01-15T11:16:39.638Z,37.20
2019-01-15T11:19:10.753Z,36.70
2019-01-15T11:21:41.177Z,39.90
2019-01-15T11:24:14.710Z,41.80
2019-01-15T11:26:45.852Z,38.70
2019-01-15T11:29:20.652Z,41.00
2019-01-15T11:31:51.501Z,42.50
2019-01-15T11:34:24.291Z,41.20
2019-01-15T11:36:57.220Z,39.40
2019-01-15T11:39:27.692Z,40.00
2019-01-15T11:42:04.154Z,40.80
2019-01-15T11:44:37.317Z,40.70
2019-01-15T11:47:20.413Z,42.50
2019-01-15T11:49:53.136Z,39.10
2019-01-15T11:52:26.260Z,39.50
2019-01-15T11:57:58.846Z,41.90
2019-01-15T12:00:48.365Z,36.80
2019-01-15T12:03:41.676Z,40.30
2019-01-15T12:09:30.017Z,35.20
2019-01-15T12:12:33.769Z,35.10
2019-01-15T12:15:23.856Z,33.80
2019-01-15T12:18:12.972Z,34.80
2019-01-15T12:21:24.067Z,36.80
2019-01-15T12:24:15.129Z,36.60
2019-01-15T12:27:02.903Z,40.00
2019-01-15T12:29:56.142Z,38.10
2019-01-15T12:32:50.347Z,37.30
2019-01-15T12:35:54.061Z,37.50
2019-01-15T12:38:49.845Z,34.40
2019-01-15T12:41:39.490Z,31.70
2019-01-15T12:44:42.619Z,35.40
2019-01-15T12:47:34.884Z,34.10
2019-01-15T12:50:18.669Z,34.00
2019-01-15T12:53:19.132Z,33.20
2019-01-15T12:56:08.633Z,34.00
2019-01-15T12:58:56.798Z,34.00
2019-01-15T13:01:50.625Z,31.10
2019-01-15T13:04:58.646Z,32.80
2019-01-15T13:07:46.469Z,34.80
2019-01-15T13:10:37.019Z,33.10
2019-01-15T13:13:28.497Z,34.50
2019-01-15T13:16:18.005Z,37.60
2019-01-15T13:19:09.339Z,37.00
2019-01-15T13:21:49.195Z,37.20
2019-01-15T13:24:51.205Z,33.70
2019-01-15T13:27:42.088Z,40.20
2019-01-15T13:30:27.850Z,37.90
2019-01-15T13:33:08.085Z,40.10
2019-01-15T13:36:03.364Z,37.20
2019-01-15T13:38:46.231Z,38.00
2019-01-15T13:41:35.350Z,37.10
2019-01-15T13:44:23.844Z,35.30
2019-01-15T13:47:25.580Z,36.10
2019-01-15T13:50:26.235Z,36.60
2019-01-15T13:53:24.590Z,35.60
2019-01-15T13:56:13.699Z,33.10
2019-01-15T13:59:00.289Z,32.40
2019-01-15T14:01:51.074Z,33.80
2019-01-15T14:04:46.991Z,32.60
2019-01-15T14:07:32.095Z,34.10
2019-01-15T14:10:23.939Z,31.00
2019-01-15T14:13:10.328Z,34.20
2019-01-15T14:16:04.986Z,39.80
2019-01-15T14:18:54.810Z,39.10
2019-01-15T14:21:57.606Z,38.20
2019-01-15T14:24:36.227Z,39.80
2019-01-15T14:27:25.102Z,35.60
2019-01-15T14:30:13.383Z,37.10
2019-01-15T14:33:06.642Z,38.60
2019-01-15T14:35:56.180Z,40.00
2019-01-15T14:38:51.819Z,40.70
2019-01-15T14:41:44.339Z,41.10
2019-01-15T14:44:47.232Z,41.30
2019-01-15T14:47:35.689Z,42.40
2019-01-15T14:50:22.472Z,41.70
2019-01-15T14:53:24.062Z,42.70
2019-01-15T14:56:19.257Z,44.50
2019-01-15T14:59:08.423Z,45.40
2019-01-15T15:01:59.379Z,45.40
2019-01-15T15:04:48.813Z,46.90
2019-01-15T15:07:34.963Z,53.60
2019-01-15T15:10:30.914Z,50.90
2019-01-15T15:13:17.654Z,48.80
2019-01-15T15:16:10.453Z,46.20
2019-01-15T15:19:06.985Z,45.40
2019-01-15T15:22:11.568Z,43.10
2019-01-15T15:24:59.884Z,42.10
2019-01-15T15:27:47.924Z,41.60
2019-01-15T15:30:38.965Z,40.30
2019-01-15T15:33:28.298Z,39.00
2019-01-15T15:36:28.352Z,38.10
2019-01-15T15:39:19.191Z,37.50
2019-01-15T15:42:16.419Z,37.40
2019-01-15T15:45:24.098Z,36.60
2019-01-15T15:48:22.767Z,35.90
2019-01-15T15:51:15.312Z,34.90
2019-01-15T15:54:16.558Z,35.30
2019-01-15T15:57:03.535Z,35.20
2019-01-15T15:59:51.802Z,36.60
2019-01-15T16:02:40.671Z,37.20
2019-01-15T16:05:42.640Z,36.80
2019-01-15T16:08:29.380Z,36.20
2019-01-15T16:11:24.872Z,35.90
2019-01-15T16:14:24.000Z,35.30
2019-01-15T16:17:16.013Z,35.20
2019-01-15T16:20:17.270Z,35.30
2019-01-15T16:23:05.222Z,35.30
2019-01-15T16:26:00.754Z,35.30
2019-01-15T16:28:58.858Z,35.10
2019-01-15T16:31:41.476Z,34.40
2019-01-15T16:34:29.621Z,34.70
2019-01-15T16:37:17.362Z,35.00
2019-01-15T16:39:56.785Z,34.80
2019-01-15T16:42:58.011Z,34.60
2019-01-15T16:45:45.949Z,34.60
2019-01-15T16:48:38.362Z,34.20
2019-01-15T16:51:39.647Z,34.20
2019-01-15T16:54:46.859Z,33.90
2019-01-15T16:57:36.811Z,33.80
2019-01-15T17:00:48.430Z,33.70
2019-01-15T17:03:27.106Z,33.40
2019-01-15T17:06:17.241Z,33.00
2019-01-15T17:09:01.410Z,33.50
2019-01-15T17:11:41.877Z,32.90
2019-01-15T17:14:29.802Z,33.10
2019-01-15T17:17:22.108Z,33.50
2019-01-15T17:20:17.543Z,33.10
2019-01-15T17:23:09.859Z,32.90
2019-01-15T17:25:53.395Z,32.20
2019-01-15T17:28:41.340Z,31.80
2019-01-15T17:31:33.736Z,31.70
2019-01-15T17:34:29.218Z,31.10
2019-01-15T17:37:21.141Z,31.20
2019-01-15T17:40:08.825Z,30.90
2019-01-15T17:42:56.941Z,30.70
2019-01-15T17:45:47.544Z,30.70
2019-01-15T17:48:31.958Z,30.80
2019-01-15T17:51:20.528Z,30.70
2019-01-15T17:54:22.070Z,30.50
2019-01-15T17:57:09.874Z,30.30
2019-01-15T17:59:57.555Z,30.70
2019-01-15T18:03:02.052Z,30.90
2019-01-15T18:05:53.916Z,30.80
2019-01-15T18:08:38.245Z,31.00
2019-01-15T18:11:19.794Z,30.90
2019-01-15T18:14:12.170Z,31.40
2019-01-15T18:17:08.428Z,31.60
2019-01-15T18:20:01.349Z,31.90
2019-01-15T18:22:57.447Z,33.70
2019-01-15T18:25:46.831Z,33.80
2019-01-15T18:28:42.422Z,35.60
2019-01-15T18:31:22.096Z,36.40
2019-01-15T18:34:11.607Z,37.10
2019-01-15T18:37:03.384Z,37.80
2019-01-15T18:39:59.700Z,38.20
2019-01-15T18:42:47.616Z,38.20
2019-01-15T18:45:36.952Z,38.40
2019-01-15T18:48:29.084Z,38.90
2019-01-15T18:51:24.963Z,38.20
2019-01-15T18:54:12.631Z,38.20
2019-01-15T18:57:01.971Z,37.30
2019-01-15T18:59:50.012Z,37.50
2019-01-15T19:02:40.992Z,37.20
2019-01-15T19:05:28.719Z,37.20
2019-01-15T19:08:20.927Z,37.10
2019-01-15T19:11:12.982Z,36.60
2019-01-15T19:14:01.031Z,36.30
2019-01-15T19:17:03.323Z,36.20
2019-01-15T19:19:50.305Z,35.90
2019-01-15T19:22:40.081Z,36.10
2019-01-15T19:25:38.483Z,35.60
2019-01-15T19:28:19.766Z,35.50
2019-01-15T19:31:01.506Z,35.40
2019-01-15T19:33:56.849Z,35.10
2019-01-15T19:36:44.885Z,35.10
2019-01-15T19:39:32.964Z,35.40
2019-01-15T19:42:20.935Z,35.30
2019-01-15T19:45:03.497Z,35.00
2019-01-15T19:47:58.742Z,34.70
2019-01-15T19:50:46.503Z,34.40
2019-01-15T19:53:24.779Z,34.30
2019-01-15T19:56:15.696Z,34.50
2019-01-15T19:59:03.477Z,34.40
2019-01-15T20:01:51.098Z,34.50
2019-01-15T20:04:49.306Z,34.40
2019-01-15T20:07:37.126Z,34.50
2019-01-15T20:10:27.936Z,34.30
2019-01-15T20:13:15.809Z,34.20
2019-01-15T20:16:08.018Z,34.20
2019-01-15T20:19:00.614Z,34.30
2019-01-15T20:21:55.940Z,34.30
2019-01-15T20:24:42.893Z,34.20
2019-01-15T20:27:41.517Z,34.10
2019-01-15T20:30:30.412Z,34.30
2019-01-15T20:33:25.686Z,34.10
2019-01-15T20:36:12.302Z,33.90
2019-01-15T20:39:00.365Z,33.80
2019-01-15T20:41:50.116Z,34.00
2019-01-15T20:44:54.457Z,33.90
2019-01-15T20:47:49.450Z,33.90
2019-01-15T20:50:44.954Z,34.40
2019-01-15T20:53:32.836Z,33.80
2019-01-15T20:56:20.721Z,33.60
2019-01-15T20:59:28.262Z,33.60
2019-01-15T21:02:14.222Z,33.60
2019-01-15T21:05:01.281Z,33.60
2019-01-15T21:07:47.981Z,33.60
2019-01-15T21:10:35.849Z,33.70
2019-01-15T21:13:31.118Z,33.40
2019-01-15T21:16:20.400Z,33.40
2019-01-15T21:19:12.803Z,33.30
2019-01-15T21:21:58.142Z,33.40
2019-01-15T21:24:50.246Z,33.30
2019-01-15T21:27:51.795Z,33.30
2019-01-15T21:30:41.474Z,33.30
2019-01-15T21:33:28.083Z,33.30
2019-01-15T21:36:26.444Z,33.30
2019-01-15T21:39:18.634Z,33.10
2019-01-15T21:42:06.789Z,33.20
2019-01-15T21:44:57.005Z,33.30
2019-01-15T21:48:04.444Z,33.10
2019-01-15T21:50:52.278Z,33.30
2019-01-15T21:53:39.830Z,33.10
2019-01-15T21:56:21.416Z,33.10
2019-01-15T21:59:01.498Z,33.20
2019-01-15T22:01:47.469Z,33.00
2019-01-15T22:04:35.373Z,33.10
2019-01-15T22:07:27.641Z,33.10
2019-01-15T22:10:07.254Z,32.90
2019-01-15T22:12:55.224Z,33.00
2019-01-15T22:15:50.469Z,32.80
2019-01-15T22:18:38.253Z,32.90
2019-01-15T22:21:45.684Z,33.00
2019-01-15T22:24:38.138Z,32.90
2019-01-15T22:27:30.327Z,33.00
2019-01-15T22:30:25.729Z,33.00
2019-01-15T22:33:13.716Z,32.90
2019-01-15T22:36:03.102Z,33.00
2019-01-15T22:38:48.084Z,33.00
2019-01-15T22:41:36.422Z,32.90
2019-01-15T22:44:44.050Z,32.90
2019-01-15T22:47:36.164Z,32.90
2019-01-15T22:50:44.583Z,32.90
2019-01-15T22:53:45.926Z,32.50
2019-01-15T22:56:44.031Z,32.80
2019-01-15T22:59:33.333Z,33.00
2019-01-15T23:02:11.623Z,32.80
2019-01-15T23:04:59.321Z,33.20
2019-01-15T23:07:46.953Z,33.20
2019-01-15T23:10:31.946Z,33.00
2019-01-15T23:13:27.066Z,33.00
2019-01-15T23:16:16.328Z,33.10
2019-01-15T23:19:05.286Z,33.20
2019-01-15T23:22:03.590Z,33.20
2019-01-15T23:25:02.153Z,33.20
2019-01-15T23:27:49.837Z,33.20
2019-01-15T23:30:37.878Z,33.30
2019-01-15T23:33:27.344Z,33.40
2019-01-15T23:36:14.337Z,33.50
2019-01-15T23:39:02.154Z,33.40
2019-01-15T23:42:01.819Z,33.40
2019-01-15T23:45:09.175Z,33.40
2019-01-15T23:48:01.358Z,33.30
2019-01-15T23:50:45.121Z,33.50
2019-01-15T23:53:40.315Z,33.40
2019-01-15T23:56:32.097Z,33.40
2019-01-15T23:59:27.469Z,33.50
